Pagrindinis puslapis
METAR-TAF:

METAR-TAF

Oro uostai :

Nica, Prancūzija

platuma: 43-39N, ilguma: 007-12E, Aukštis: 4 m

Dabartinis oras

Ataskaita buvo paskelbta 35 minutes, ne 23:30 UTC
Vėjas 8 kt iš Šiaurės/Šiaurės Vakarų
Temperatūra 15°C
Drėgmė 36%
Slėgis 1026 hPa
Matomumas 10 km arba daugiau
nėra debesų žemiau 1500 m ir nėra kamuolinių lietaus debesų

METAR: LFMN 072330Z AUTO 33008KT CAVOK 15/M00 Q1026 NOSIG

Laikas: 02:05 (00:05 UTC)

Prognozė

Ataskaita buvo paskelbta 4 valandos ir 5 minutes, ne 20:00 UTC
Prognozė galioja nuo 07 metu 21 UTC su 09 metu 03 UTC
Vėjas 10 kt iš Šiaurės
Matomumas 10 km arba daugiau
nėra debesų žemiau 1500 m ir nėra kamuolinių lietaus debesų
Tapsmas
nuo 08 metu 08 UTC su 08 metu 09 UTC
Vėjas 5 kt iš Pietų/Pietryčių
Tapsmas
nuo 08 metu 19 UTC su 08 metu 21 UTC
Vėjas 10 kt iš Šiaurės/Šiaurės Vakarų

TAF: LFMN 072000Z 0721/0903 35010KT CAVOK BECMG 0808/0809 16005KT BECMG 0819/0821 33010KT

Orai ataskaitas ir orų prognozės (METAR, TAF).

turimą stotys yra geltonos ir raudonos taškus žemėlapyje.

Perkelti pele per norėdami pamatyti stoties vardą.

Tada spustelėkite, norėdami matyti oro stebėjimo ir prognozės.

Norėdami pakeisti žemėlapį: spustelėkite ant žalios mygtukų su juodo kryžiaus žemyn,; žalią mygtuką su brūkšneliu, jei norite nutolinti; arba žalių rodyklių gretimoms žemėlapius.


METAR-TAF: